createdAt,value
2019-04-26T00:01:02.602Z,3.43
2019-04-26T00:03:41.555Z,3.20
2019-04-26T00:06:10.753Z,3.37
2019-04-26T00:08:39.935Z,2.80
2019-04-26T00:11:16.311Z,2.80
2019-04-26T00:14:02.201Z,2.90
2019-04-26T00:16:44.574Z,3.03
2019-04-26T00:19:13.834Z,3.00
2019-04-26T00:21:42.543Z,3.43
2019-04-26T00:24:11.770Z,2.87
2019-04-26T00:26:40.277Z,3.03
2019-04-26T00:29:08.665Z,2.93
2019-04-26T00:31:37.093Z,3.00
2019-04-26T00:34:05.573Z,3.03
2019-04-26T00:36:33.980Z,2.70
2019-04-26T00:39:02.362Z,3.20
2019-04-26T00:41:30.924Z,3.00
2019-04-26T00:43:59.417Z,3.30
2019-04-26T00:46:31.157Z,3.50
2019-04-26T00:49:02.632Z,3.50
2019-04-26T00:51:31.852Z,3.43
2019-04-26T00:54:00.871Z,3.07
2019-04-26T00:56:29.693Z,3.37
2019-04-26T00:58:58.337Z,3.20
2019-04-26T01:01:28.463Z,2.97
2019-04-26T01:03:56.946Z,3.33
2019-04-26T01:06:26.993Z,3.00
2019-04-26T01:08:55.399Z,2.93
2019-04-26T01:11:23.926Z,3.30
2019-04-26T01:13:52.295Z,3.37
2019-04-26T01:16:20.858Z,3.50
2019-04-26T01:18:50.319Z,3.00
2019-04-26T01:21:22.661Z,3.23
2019-04-26T01:23:53.937Z,2.87
2019-04-26T01:26:28.216Z,3.33
2019-04-26T01:29:05.629Z,3.43
2019-04-26T01:31:39.892Z,3.57
2019-04-26T01:34:08.363Z,3.43
2019-04-26T01:36:42.228Z,3.60
2019-04-26T01:39:12.328Z,3.60
2019-04-26T01:41:45.343Z,3.67
2019-04-26T01:44:31.993Z,3.97
2019-04-26T01:47:00.579Z,3.60
2019-04-26T01:49:29.154Z,3.47
2019-04-26T01:52:11.343Z,3.47
2019-04-26T01:54:42.929Z,3.80
2019-04-26T01:57:14.510Z,3.47
2019-04-26T01:59:46.853Z,3.00
2019-04-26T02:02:32.079Z,3.73
2019-04-26T02:05:13.969Z,4.10
2019-04-26T02:07:42.832Z,3.20
2019-04-26T02:10:16.901Z,3.03
2019-04-26T02:12:48.607Z,2.80
2019-04-26T02:15:20.267Z,2.70
2019-04-26T02:17:50.682Z,2.70
2019-04-26T02:20:41.722Z,2.83
2019-04-26T02:23:30.370Z,2.23
2019-04-26T02:26:00.490Z,2.40
2019-04-26T02:28:30.429Z,2.67
2019-04-26T02:30:59.200Z,2.20
2019-04-26T02:33:29.688Z,2.70
2019-04-26T02:35:58.101Z,2.40
2019-04-26T02:38:27.918Z,2.03
2019-04-26T02:40:59.081Z,2.67
2019-04-26T02:43:30.238Z,2.47
2019-04-26T02:46:10.100Z,2.40
2019-04-26T02:49:01.240Z,2.53
2019-04-26T02:51:36.438Z,3.00
2019-04-26T02:54:29.708Z,3.00
2019-04-26T02:57:00.289Z,2.63
2019-04-26T02:59:33.781Z,2.80
2019-04-26T03:02:06.906Z,3.30
2019-04-26T03:04:39.467Z,3.10
2019-04-26T03:07:11.085Z,2.20
2019-04-26T03:09:43.219Z,3.00
2019-04-26T03:12:18.023Z,2.90
2019-04-26T03:14:53.718Z,2.80
2019-04-26T03:17:43.124Z,3.30
2019-04-26T03:20:21.337Z,3.00
2019-04-26T03:22:52.800Z,3.30
2019-04-26T03:25:26.950Z,2.77
2019-04-26T03:28:13.352Z,3.57
2019-04-26T03:30:52.672Z,3.50
2019-04-26T03:33:42.046Z,3.80
2019-04-26T03:36:19.867Z,3.70
2019-04-26T03:38:58.540Z,4.77
2019-04-26T03:41:42.535Z,3.80
2019-04-26T03:44:19.889Z,4.67
2019-04-26T03:46:54.345Z,3.63
2019-04-26T03:49:44.190Z,4.50
2019-04-26T03:52:20.686Z,4.00
2019-04-26T03:54:58.239Z,3.73
2019-04-26T03:57:36.231Z,4.13
2019-04-26T04:00:11.511Z,3.70
2019-04-26T04:02:47.227Z,3.70
2019-04-26T04:05:20.342Z,3.93
2019-04-26T04:07:51.601Z,4.20
2019-04-26T04:10:30.294Z,4.00
2019-04-26T04:13:23.045Z,4.50
2019-04-26T04:15:53.348Z,5.03
2019-04-26T04:18:32.170Z,4.30
2019-04-26T04:21:22.893Z,3.93
2019-04-26T04:23:57.199Z,4.30
2019-04-26T04:26:34.479Z,4.40
2019-04-26T04:29:42.602Z,4.37
2019-04-26T04:32:23.061Z,4.40
2019-04-26T04:34:54.518Z,4.73
2019-04-26T04:37:25.995Z,4.50
2019-04-26T04:40:18.864Z,4.60
2019-04-26T04:43:04.392Z,4.40
2019-04-26T04:46:12.071Z,4.20
2019-04-26T04:48:59.635Z,4.53
2019-04-26T04:51:46.855Z,5.00
2019-04-26T04:54:24.893Z,4.77
2019-04-26T04:57:02.313Z,5.10
2019-04-26T04:59:52.369Z,5.57
2019-04-26T05:02:43.825Z,4.20
2019-04-26T05:05:51.085Z,3.80
2019-04-26T05:08:41.007Z,5.00
2019-04-26T05:11:21.021Z,4.70
2019-04-26T05:13:55.292Z,5.03
2019-04-26T05:17:00.037Z,4.77
2019-04-26T05:19:54.868Z,4.30
2019-04-26T05:22:35.196Z,5.00
2019-04-26T05:25:40.329Z,4.33
2019-04-26T05:28:13.635Z,4.93
2019-04-26T05:31:07.406Z,5.00
2019-04-26T05:33:44.497Z,5.07
2019-04-26T05:36:30.957Z,5.87
2019-04-26T05:39:02.407Z,5.40
2019-04-26T05:41:55.686Z,5.30
2019-04-26T05:44:31.518Z,4.03
2019-04-26T05:47:25.407Z,4.80
2019-04-26T05:50:25.398Z,4.70
2019-04-26T05:53:31.202Z,5.17
2019-04-26T05:56:34.821Z,6.30
2019-04-26T05:59:24.187Z,5.63
2019-04-26T06:02:35.143Z,5.20
2019-04-26T06:05:22.274Z,4.93
2019-04-26T06:08:31.771Z,4.83
2019-04-26T06:11:07.510Z,4.50
2019-04-26T06:14:02.017Z,5.07
2019-04-26T06:16:43.338Z,6.30
2019-04-26T06:19:24.993Z,5.17
2019-04-26T06:22:08.221Z,4.90
2019-04-26T06:24:56.511Z,3.87
2019-04-26T06:27:41.704Z,4.67
2019-04-26T06:30:16.477Z,4.90
2019-04-26T06:33:21.048Z,4.90
2019-04-26T06:35:54.718Z,4.83
2019-04-26T06:38:43.989Z,4.27
2019-04-26T06:41:22.332Z,4.83
2019-04-26T06:44:04.764Z,4.70
2019-04-26T06:47:05.127Z,4.50
2019-04-26T06:50:03.696Z,4.40
2019-04-26T06:52:35.098Z,4.30
2019-04-26T06:55:08.202Z,4.10
2019-04-26T06:58:02.994Z,3.90
2019-04-26T07:01:05.892Z,3.97
2019-04-26T07:03:49.196Z,4.63
2019-04-26T07:06:20.670Z,3.90
2019-04-26T07:09:11.678Z,3.73
2019-04-26T07:12:31.726Z,3.57
2019-04-26T07:15:28.354Z,3.30
2019-04-26T07:18:04.420Z,4.17
2019-04-26T07:20:40.614Z,4.20
2019-04-26T07:23:37.928Z,4.57
2019-04-26T07:26:34.960Z,3.60
2019-04-26T07:29:14.024Z,4.10
2019-04-26T07:31:54.303Z,3.93
2019-04-26T07:34:48.536Z,3.43
2019-04-26T07:37:32.185Z,3.83
2019-04-26T07:40:11.522Z,3.87
2019-04-26T07:43:08.895Z,3.90
2019-04-26T07:45:53.473Z,4.57
2019-04-26T07:48:41.335Z,3.53
2019-04-26T07:51:18.811Z,4.13
2019-04-26T07:54:09.745Z,4.10
2019-04-26T07:56:56.099Z,4.00
2019-04-26T07:59:59.534Z,4.07
2019-04-26T08:02:47.047Z,3.87
2019-04-26T08:05:28.867Z,4.40
2019-04-26T08:08:00.585Z,3.63
2019-04-26T08:10:32.401Z,4.30
2019-04-26T08:13:10.108Z,4.00
2019-04-26T08:15:55.051Z,5.27
2019-04-26T08:18:28.151Z,4.27
2019-04-26T08:21:13.617Z,3.60
2019-04-26T08:23:44.063Z,3.20
2019-04-26T08:26:15.537Z,3.80
2019-04-26T08:28:46.196Z,4.50
2019-04-26T08:31:21.230Z,4.33
2019-04-26T08:33:55.110Z,4.10
2019-04-26T08:36:27.040Z,3.83
2019-04-26T08:38:58.403Z,4.27
2019-04-26T08:41:27.423Z,3.50
2019-04-26T08:44:17.224Z,4.97
2019-04-26T08:47:05.999Z,4.87
2019-04-26T08:49:52.513Z,4.57
2019-04-26T08:52:23.321Z,4.87
2019-04-26T08:54:55.508Z,4.73
2019-04-26T08:57:26.911Z,4.83
2019-04-26T08:59:58.295Z,4.33
2019-04-26T09:02:31.207Z,6.03
2019-04-26T09:05:04.360Z,5.00
2019-04-26T09:07:36.437Z,4.87
2019-04-26T09:10:11.229Z,5.33
2019-04-26T09:12:41.021Z,5.00
2019-04-26T09:15:13.966Z,5.00
2019-04-26T09:17:42.453Z,5.47
2019-04-26T09:20:11.192Z,5.10
2019-04-26T09:22:41.258Z,5.40
2019-04-26T09:25:17.793Z,5.70
2019-04-26T09:27:50.629Z,5.27
2019-04-26T09:30:33.370Z,5.57
2019-04-26T09:32:53.135Z,5.50
2019-04-26T09:35:21.520Z,4.50
2019-04-26T09:37:49.931Z,4.87
2019-04-26T09:40:21.550Z,5.13
2019-04-26T09:42:50.350Z,5.73
2019-04-26T09:45:32.745Z,5.70
2019-04-26T09:48:02.798Z,9.90
2019-04-26T09:50:32.912Z,8.30
2019-04-26T09:53:01.327Z,5.40
2019-04-26T09:55:35.486Z,5.27
2019-04-26T09:57:59.937Z,6.20
2019-04-26T10:00:30.281Z,5.70
2019-04-26T10:02:58.843Z,4.97
2019-04-26T10:05:27.307Z,6.17
2019-04-26T10:07:55.772Z,5.20
2019-04-26T10:10:26.177Z,6.57
2019-04-26T10:13:14.922Z,6.20
2019-04-26T10:15:58.101Z,5.10
2019-04-26T10:18:26.294Z,4.83
2019-04-26T10:20:54.698Z,5.27
2019-04-26T10:23:23.167Z,6.67
2019-04-26T10:25:53.443Z,4.80
2019-04-26T10:28:21.932Z,5.00
2019-04-26T10:30:50.737Z,5.40
2019-04-26T10:33:19.225Z,5.20
2019-04-26T10:35:47.657Z,4.93
2019-04-26T10:38:19.435Z,4.27
2019-04-26T10:40:46.284Z,5.00
2019-04-26T10:43:14.785Z,4.60
2019-04-26T10:45:45.915Z,5.17
2019-04-26T10:48:13.974Z,5.60
2019-04-26T10:50:43.804Z,5.50
2019-04-26T10:53:16.565Z,4.73
2019-04-26T10:55:50.266Z,4.40
2019-04-26T10:58:24.939Z,4.67
2019-04-26T11:01:01.034Z,5.60
2019-04-26T11:03:29.501Z,3.67
2019-04-26T11:05:57.970Z,3.80
2019-04-26T11:08:26.680Z,4.10
2019-04-26T11:10:55.186Z,3.83
2019-04-26T11:13:23.585Z,4.20
2019-04-26T11:15:52.080Z,4.20
2019-04-26T11:18:27.363Z,3.43
2019-04-26T11:20:50.735Z,3.60
2019-04-26T11:23:19.140Z,3.97
2019-04-26T11:25:47.665Z,3.73
2019-04-26T11:28:17.205Z,3.93
2019-04-26T11:30:47.977Z,3.60
2019-04-26T11:33:16.448Z,3.90
2019-04-26T11:35:44.936Z,4.07
2019-04-26T11:38:13.348Z,11.60
2019-04-26T11:40:44.401Z,3.90
2019-04-26T11:43:11.969Z,3.23
2019-04-26T11:45:40.385Z,3.20
2019-04-26T11:48:08.809Z,2.77
2019-04-26T11:50:37.284Z,2.30
2019-04-26T11:53:06.219Z,2.83
2019-04-26T11:55:35.918Z,2.87
2019-04-26T11:58:04.377Z,2.97
2019-04-26T12:00:43.360Z,2.90
2019-04-26T12:03:11.849Z,3.30
2019-04-26T12:05:57.718Z,3.37
2019-04-26T12:08:27.757Z,3.03
2019-04-26T12:10:56.256Z,3.10
2019-04-26T12:13:25.205Z,2.70
2019-04-26T12:15:54.966Z,4.20
2019-04-26T12:18:24.031Z,3.13
2019-04-26T12:20:52.369Z,3.57
2019-04-26T12:23:21.822Z,3.27
2019-04-26T12:25:50.279Z,3.03
2019-04-26T12:28:18.692Z,3.67
2019-04-26T12:30:47.102Z,3.07
2019-04-26T12:33:15.521Z,2.53
2019-04-26T12:35:43.991Z,3.47
2019-04-26T12:38:12.396Z,2.90
2019-04-26T12:40:42.335Z,2.20
2019-04-26T12:43:10.975Z,2.40
2019-04-26T12:45:47.348Z,2.03
2019-04-26T12:48:25.011Z,3.27
2019-04-26T12:50:53.474Z,3.03
2019-04-26T12:53:21.885Z,3.20
2019-04-26T12:55:53.650Z,4.63
2019-04-26T12:58:20.452Z,3.53
2019-04-26T13:00:54.047Z,2.97
2019-04-26T13:03:20.382Z,2.77
2019-04-26T13:05:57.472Z,2.40
2019-04-26T13:08:19.472Z,2.90
2019-04-26T13:11:08.038Z,2.70
2019-04-26T13:13:55.208Z,2.70
2019-04-26T13:16:31.113Z,2.53
2019-04-26T13:18:59.520Z,2.60
2019-04-26T13:21:27.932Z,3.10
2019-04-26T13:23:56.338Z,2.70
2019-04-26T13:26:24.789Z,6.73
2019-04-26T13:28:57.021Z,2.50
2019-04-26T13:31:23.311Z,2.93
2019-04-26T13:33:51.720Z,3.30
2019-04-26T13:36:20.149Z,2.37
2019-04-26T13:38:48.573Z,2.60
2019-04-26T13:41:17.079Z,2.50
2019-04-26T13:43:45.474Z,3.10
2019-04-26T13:46:21.815Z,2.60
2019-04-26T13:48:51.926Z,2.60
2019-04-26T13:51:30.903Z,2.80
2019-04-26T13:53:59.369Z,3.13
2019-04-26T13:56:27.879Z,2.70
2019-04-26T13:58:58.203Z,2.50
2019-04-26T14:01:26.605Z,3.00
2019-04-26T14:03:55.084Z,2.70
2019-04-26T14:06:23.567Z,3.20
2019-04-26T14:08:53.931Z,2.73
2019-04-26T14:11:28.149Z,3.10
2019-04-26T14:13:55.529Z,3.13
2019-04-26T14:16:22.827Z,3.00
2019-04-26T14:18:51.272Z,3.43
2019-04-26T14:21:19.679Z,3.03
2019-04-26T14:23:58.679Z,4.03
2019-04-26T14:26:28.789Z,3.70
2019-04-26T14:28:58.204Z,3.30
2019-04-26T14:31:27.515Z,3.47
2019-04-26T14:33:55.987Z,3.60
2019-04-26T14:36:26.785Z,3.50
2019-04-26T14:39:05.354Z,2.93
2019-04-26T14:41:24.871Z,3.00
2019-04-26T14:43:56.727Z,2.50
2019-04-26T14:46:23.630Z,3.13
2019-04-26T14:49:02.765Z,3.17
2019-04-26T14:51:27.215Z,3.00
2019-04-26T14:53:55.651Z,3.10
2019-04-26T14:56:24.661Z,3.20
2019-04-26T14:58:54.274Z,3.03
2019-04-26T15:01:42.147Z,2.80
2019-04-26T15:04:29.203Z,3.30
2019-04-26T15:06:59.701Z,2.70
2019-04-26T15:09:33.281Z,3.03
2019-04-26T15:12:01.241Z,2.70
2019-04-26T15:14:28.559Z,3.07
2019-04-26T15:16:57.026Z,2.50
2019-04-26T15:19:25.509Z,2.60
2019-04-26T15:21:53.891Z,2.90
2019-04-26T15:24:22.711Z,3.13
2019-04-26T15:26:51.214Z,2.73
2019-04-26T15:29:21.269Z,3.60
2019-04-26T15:31:53.747Z,4.40
2019-04-26T15:34:23.633Z,2.93
2019-04-26T15:36:50.240Z,3.20
2019-04-26T15:39:23.093Z,3.33
2019-04-26T15:42:04.164Z,3.30
2019-04-26T15:44:36.877Z,2.80
2019-04-26T15:47:13.363Z,3.40
2019-04-26T15:49:46.540Z,3.10
2019-04-26T15:52:15.098Z,3.27
2019-04-26T15:54:43.517Z,3.03
2019-04-26T15:57:12.418Z,3.23
2019-04-26T15:59:42.901Z,3.20
2019-04-26T16:02:12.443Z,3.07
2019-04-26T16:04:42.428Z,2.90
2019-04-26T16:07:16.723Z,3.43
2019-04-26T16:09:43.037Z,3.43
2019-04-26T16:12:13.440Z,3.03
2019-04-26T16:14:42.282Z,3.30
2019-04-26T16:17:12.351Z,3.73
2019-04-26T16:19:40.926Z,3.97
2019-04-26T16:22:09.339Z,3.03
2019-04-26T16:24:37.750Z,3.40
2019-04-26T16:27:06.237Z,2.53
2019-04-26T16:29:36.325Z,2.90
2019-04-26T16:32:09.491Z,2.97
2019-04-26T16:34:47.561Z,2.93
2019-04-26T16:37:16.518Z,2.60
2019-04-26T16:39:46.041Z,2.90
2019-04-26T16:42:13.948Z,2.60
2019-04-26T16:44:45.035Z,3.07
2019-04-26T16:47:13.302Z,2.77
2019-04-26T16:49:44.166Z,3.20
2019-04-26T16:52:13.978Z,2.83
2019-04-26T16:54:42.504Z,2.57
2019-04-26T16:57:12.317Z,3.13
2019-04-26T16:59:47.422Z,2.80
2019-04-26T17:02:13.386Z,3.17
2019-04-26T17:04:43.405Z,2.57
2019-04-26T17:07:13.397Z,2.93
2019-04-26T17:09:55.860Z,2.37
2019-04-26T17:12:14.891Z,2.30
2019-04-26T17:14:47.784Z,2.43
2019-04-26T17:17:14.057Z,2.70
2019-04-26T17:19:43.266Z,2.40
2019-04-26T17:22:42.550Z,2.60
2019-04-26T17:25:16.907Z,2.50
2019-04-26T17:27:47.191Z,2.50
2019-04-26T17:30:17.520Z,2.40
2019-04-26T17:32:47.581Z,2.47
2019-04-26T17:35:16.135Z,2.50
2019-04-26T17:37:44.646Z,2.23
2019-04-26T17:40:13.175Z,2.50
2019-04-26T17:42:41.586Z,2.13
2019-04-26T17:45:10.887Z,2.87
2019-04-26T17:47:41.834Z,4.10
2019-04-26T17:50:11.006Z,2.63
2019-04-26T17:52:40.890Z,2.60
2019-04-26T17:55:11.821Z,3.20
2019-04-26T17:57:43.523Z,3.60
2019-04-26T18:00:15.383Z,2.90
2019-04-26T18:02:47.811Z,2.33
2019-04-26T18:05:12.996Z,2.70
2019-04-26T18:07:50.231Z,2.90
2019-04-26T18:10:11.984Z,3.53
2019-04-26T18:12:41.379Z,7.00
2019-04-26T18:15:12.529Z,2.97
2019-04-26T18:17:41.952Z,3.07
2019-04-26T18:20:23.442Z,2.40
2019-04-26T18:23:03.503Z,2.60
2019-04-26T18:25:32.644Z,2.60
2019-04-26T18:28:01.041Z,2.60
2019-04-26T18:30:29.541Z,3.00
2019-04-26T18:32:58.023Z,2.33
2019-04-26T18:35:26.494Z,3.03
2019-04-26T18:37:54.956Z,2.77
2019-04-26T18:40:23.358Z,2.27
2019-04-26T18:42:53.099Z,2.97
2019-04-26T18:45:28.739Z,4.37
2019-04-26T18:47:56.318Z,4.37
2019-04-26T18:50:23.748Z,3.70
2019-04-26T18:52:56.531Z,2.93
2019-04-26T18:55:29.249Z,3.40
2019-04-26T18:58:01.496Z,3.70
2019-04-26T19:00:29.059Z,3.67
2019-04-26T19:02:59.940Z,2.60
2019-04-26T19:05:30.073Z,2.80
2019-04-26T19:07:59.714Z,2.67
2019-04-26T19:10:29.317Z,2.30
2019-04-26T19:13:00.037Z,2.17
2019-04-26T19:15:41.766Z,2.40
2019-04-26T19:18:14.174Z,2.50
2019-04-26T19:21:03.080Z,2.87
2019-04-26T19:23:32.102Z,2.43
2019-04-26T19:26:01.807Z,2.70
2019-04-26T19:28:30.323Z,3.33
2019-04-26T19:30:58.754Z,2.40
2019-04-26T19:33:27.148Z,2.60
2019-04-26T19:35:55.568Z,3.40
2019-04-26T19:38:23.966Z,2.50
2019-04-26T19:40:52.394Z,2.90
2019-04-26T19:43:30.400Z,2.70
2019-04-26T19:45:58.321Z,2.87
2019-04-26T19:48:31.500Z,3.30
2019-04-26T19:51:19.042Z,3.20
2019-04-26T19:53:53.046Z,3.50
2019-04-26T19:56:24.605Z,2.77
2019-04-26T19:58:57.400Z,2.60
2019-04-26T20:01:24.827Z,4.03
2019-04-26T20:03:55.318Z,2.53
2019-04-26T20:06:22.940Z,2.80
2019-04-26T20:08:51.957Z,2.80
2019-04-26T20:11:20.661Z,3.00
2019-04-26T20:13:51.767Z,3.20
2019-04-26T20:16:19.179Z,2.90
2019-04-26T20:18:47.610Z,2.50
2019-04-26T20:21:16.098Z,3.10
2019-04-26T20:23:47.358Z,3.10
2019-04-26T20:26:14.746Z,2.90
2019-04-26T20:28:43.151Z,3.03
2019-04-26T20:31:19.423Z,2.87
2019-04-26T20:33:47.959Z,2.57
2019-04-26T20:36:16.395Z,2.60
2019-04-26T20:38:47.405Z,2.43
2019-04-26T20:41:15.245Z,3.03
2019-04-26T20:43:47.000Z,3.10
2019-04-26T20:46:15.467Z,4.10
2019-04-26T20:48:44.511Z,3.10
2019-04-26T20:51:12.936Z,3.07
2019-04-26T20:53:43.706Z,2.83
2019-04-26T20:56:16.699Z,3.10
2019-04-26T20:58:43.132Z,4.63
2019-04-26T21:01:14.124Z,3.90
2019-04-26T21:03:46.032Z,4.07
2019-04-26T21:06:12.869Z,3.67
2019-04-26T21:08:42.341Z,3.80
2019-04-26T21:11:13.469Z,3.60
2019-04-26T21:13:41.596Z,3.37
2019-04-26T21:16:13.240Z,3.10
2019-04-26T21:18:43.568Z,3.93
2019-04-26T21:21:11.884Z,3.10
2019-04-26T21:23:42.271Z,3.70
2019-04-26T21:26:16.315Z,3.67
2019-04-26T21:28:44.696Z,3.33
2019-04-26T21:31:20.810Z,3.70
2019-04-26T21:33:50.845Z,3.50
2019-04-26T21:36:27.001Z,3.47
2019-04-26T21:39:13.791Z,3.50
2019-04-26T21:41:46.759Z,4.47
2019-04-26T21:44:15.808Z,8.40
2019-04-26T21:46:44.424Z,4.83
2019-04-26T21:49:17.301Z,4.10
2019-04-26T21:51:44.642Z,4.63
2019-04-26T21:54:14.445Z,4.07
2019-04-26T21:56:48.588Z,4.60
2019-04-26T21:59:13.880Z,4.83
2019-04-26T22:01:43.484Z,4.40
2019-04-26T22:04:13.281Z,4.30
2019-04-26T22:06:41.919Z,5.33
2019-04-26T22:09:36.617Z,4.80
2019-04-26T22:12:03.686Z,4.63
2019-04-26T22:14:36.342Z,4.30
2019-04-26T22:17:24.346Z,4.43
2019-04-26T22:20:15.641Z,4.23
2019-04-26T22:22:58.816Z,4.67
2019-04-26T22:25:28.969Z,5.00
2019-04-26T22:28:00.252Z,4.33
2019-04-26T22:30:38.720Z,3.97
2019-04-26T22:33:07.183Z,4.77
2019-04-26T22:35:35.787Z,5.00
2019-04-26T22:38:04.267Z,4.70
2019-04-26T22:40:33.540Z,5.60
2019-04-26T22:43:10.808Z,4.47
2019-04-26T22:45:45.496Z,4.93
2019-04-26T22:48:23.343Z,4.63
2019-04-26T22:50:53.692Z,4.20
2019-04-26T22:53:21.542Z,4.70
2019-04-26T22:55:49.874Z,4.60
2019-04-26T22:58:20.573Z,4.47
2019-04-26T23:00:48.674Z,4.53
2019-04-26T23:03:17.220Z,4.70
2019-04-26T23:05:45.638Z,4.97
2019-04-26T23:08:14.228Z,4.47
2019-04-26T23:10:44.349Z,4.30
2019-04-26T23:13:20.303Z,4.70
2019-04-26T23:15:52.852Z,4.20
2019-04-26T23:18:25.987Z,4.50
2019-04-26T23:20:58.806Z,4.20
2019-04-26T23:23:27.527Z,4.53
2019-04-26T23:25:55.952Z,4.20
2019-04-26T23:28:27.630Z,4.53
2019-04-26T23:30:55.660Z,4.47
2019-04-26T23:33:24.072Z,3.93
2019-04-26T23:35:53.011Z,3.87
2019-04-26T23:38:23.367Z,3.80
2019-04-26T23:40:51.753Z,4.47
2019-04-26T23:43:22.512Z,4.13
2019-04-26T23:45:50.360Z,3.70
2019-04-26T23:48:18.910Z,4.07
2019-04-26T23:50:47.262Z,3.07
2019-04-26T23:53:15.671Z,4.03
2019-04-26T23:55:45.344Z,3.83
2019-04-26T23:58:14.015Z,3.00
